Time;durP1;ratioP1;P1;durP2;ratioP2;P2;SDS_P1;SDS_P2;PMS_P1;PMS_P2;Temp;Humidity;BMP_temperature;BMP_pressure;BME280_temperature;BME280_humidity;BME280_pressure;Samples;Min_cycle;Max_cycle;Signal;HPM_P1;HPM_P2
2024/02/01 00:00:33;;;;;;;27.90;15.63;;;6.80;99.90;;;;;;5011223;28;20117;-82
2024/02/01 00:02:59;;;;;;;24.92;14.73;;;6.80;99.90;;;;;;5001219;28;20049;-80
2024/02/01 00:05:24;;;;;;;25.88;14.50;;;6.80;99.90;;;;;;5009474;28;20064;-83
2024/02/01 00:07:50;;;;;;;25.67;14.68;;;6.90;99.90;;;;;;5003596;28;20124;-81
2024/02/01 00:10:15;;;;;;;28.45;15.30;;;6.80;99.90;;;;;;5008712;28;20092;-81
2024/02/01 00:12:41;;;;;;;29.10;14.63;;;6.90;99.90;;;;;;5000553;28;20165;-81
2024/02/01 00:15:07;;;;;;;27.80;15.32;;;6.90;99.90;;;;;;5011105;28;20109;-84
2024/02/01 00:17:33;;;;;;;30.85;14.80;;;6.90;99.90;;;;;;5013425;28;20503;-81
2024/02/01 00:19:59;;;;;;;22.27;13.68;;;6.90;99.90;;;;;;5010975;28;20442;-81
2024/02/01 00:22:24;;;;;;;27.23;14.07;;;6.90;99.90;;;;;;5009102;28;20125;-81
2024/02/01 00:24:53;;;;;;;24.45;14.52;;;7.00;99.90;;;;;;5007265;28;20042;-80
2024/02/01 00:27:19;;;;;;;26.83;14.93;;;7.00;99.90;;;;;;5010883;28;20042;-81
2024/02/01 00:29:44;;;;;;;25.42;14.55;;;7.00;99.90;;;;;;5010351;28;20050;-81
2024/02/01 00:32:10;;;;;;;26.63;14.38;;;7.00;99.90;;;;;;5010562;28;20034;-80
2024/02/01 00:34:39;;;;;;;26.70;14.20;;;7.00;99.90;;;;;;5009993;28;20446;-82
2024/02/01 00:37:05;;;;;;;24.23;15.13;;;7.00;99.90;;;;;;5006780;28;20034;-80
2024/02/01 00:39:30;;;;;;;24.63;14.07;;;7.00;99.90;;;;;;5010223;28;20049;-80
2024/02/01 00:41:56;;;;;;;23.95;13.80;;;7.20;99.90;;;;;;5005192;28;20045;-81
2024/02/01 00:44:21;;;;;;;27.75;13.43;;;7.20;99.90;;;;;;5006643;28;20113;-83
2024/02/01 00:46:47;;;;;;;21.20;13.65;;;7.20;99.90;;;;;;5006740;28;20037;-81
2024/02/01 00:49:12;;;;;;;22.35;13.30;;;7.30;99.90;;;;;;5010561;28;20038;-81
2024/02/01 00:51:38;;;;;;;25.42;14.60;;;7.30;99.90;;;;;;5009259;28;20462;-81
2024/02/01 00:54:03;;;;;;;22.25;13.25;;;7.40;99.90;;;;;;5006237;28;20065;-82
2024/02/01 00:56:29;;;;;;;24.45;14.20;;;7.50;99.90;;;;;;5007445;28;20088;-81
2024/02/01 00:58:55;;;;;;;27.83;14.48;;;7.50;99.90;;;;;;5012813;28;20443;-81
2024/02/01 01:01:20;;;;;;;23.42;13.52;;;7.50;99.90;;;;;;4999115;28;20069;-81
2024/02/01 01:03:46;;;;;;;26.95;13.85;;;7.50;99.90;;;;;;4999806;28;20045;-82
2024/02/01 01:06:11;;;;;;;25.88;13.68;;;7.50;99.90;;;;;;5007747;28;20034;-81
2024/02/01 01:08:37;;;;;;;25.88;13.38;;;7.50;99.90;;;;;;5007576;28;20063;-81
2024/02/01 01:11:03;;;;;;;24.58;14.32;;;7.50;99.90;;;;;;5011255;28;20037;-81
2024/02/01 01:13:29;;;;;;;26.45;13.57;;;7.50;99.90;;;;;;5012305;28;20091;-81
2024/02/01 01:15:55;;;;;;;23.45;12.82;;;8.00;99.90;;;;;;5008101;28;20136;-81
2024/02/01 01:18:20;;;;;;;26.58;13.45;;;7.60;99.90;;;;;;5007086;28;20049;-83
2024/02/01 01:20:46;;;;;;;27.92;13.15;;;7.70;99.90;;;;;;5006231;28;20045;-81
2024/02/01 01:23:11;;;;;;;29.02;13.07;;;7.70;99.90;;;;;;5008118;28;20549;-82
2024/02/01 01:25:37;;;;;;;24.88;11.52;;;7.80;99.90;;;;;;5005977;28;20526;-82
2024/02/01 01:28:03;;;;;;;26.40;12.13;;;7.80;99.90;;;;;;5014070;28;20046;-83
2024/02/01 01:30:29;;;;;;;26.05;10.63;;;7.90;99.90;;;;;;5014505;28;20049;-81
2024/02/01 01:32:54;;;;;;;22.05;10.18;;;7.90;99.90;;;;;;5007782;28;20085;-80
2024/02/01 01:35:20;;;;;;;26.27;9.52;;;7.90;99.90;;;;;;5011801;28;20073;-80
2024/02/01 01:37:45;;;;;;;23.73;9.48;;;8.00;99.90;;;;;;5009653;28;20088;-81
2024/02/01 01:40:11;;;;;;;28.83;10.05;;;8.00;99.90;;;;;;5006701;28;20368;-82
2024/02/01 01:42:37;;;;;;;27.08;10.50;;;8.00;99.90;;;;;;5005566;28;20049;-79
2024/02/01 01:45:03;;;;;;;25.58;9.85;;;8.00;99.90;;;;;;5000837;28;20052;-80
2024/02/01 01:47:30;;;;;;;24.73;9.88;;;8.00;99.90;;;;;;5015169;28;20041;-80
2024/02/01 01:49:56;;;;;;;28.73;9.80;;;8.00;99.90;;;;;;5016205;28;20054;-81
2024/02/01 01:52:23;;;;;;;32.20;9.70;;;8.00;99.90;;;;;;5016697;28;20379;-81
2024/02/01 01:54:49;;;;;;;32.28;8.15;;;8.10;99.90;;;;;;5018754;28;20049;-81
2024/02/01 01:57:16;;;;;;;29.67;8.75;;;8.00;99.90;;;;;;5015078;28;20046;-81
2024/02/01 01:59:41;;;;;;;32.47;7.53;;;8.00;99.90;;;;;;5018395;28;20041;-81
2024/02/01 02:02:08;;;;;;;28.38;7.32;;;8.00;99.90;;;;;;5014167;28;20042;-81
2024/02/01 02:04:33;;;;;;;30.75;6.03;;;8.00;99.90;;;;;;5015171;28;20049;-81
2024/02/01 02:07:01;;;;;;;26.02;6.32;;;8.10;99.90;;;;;;5013208;28;20097;-81
2024/02/01 02:09:27;;;;;;;19.98;6.05;;;8.00;99.90;;;;;;5008533;28;20042;-81
2024/02/01 02:11:53;;;;;;;23.00;5.72;;;8.10;99.90;;;;;;5013640;28;20495;-81
2024/02/01 02:14:18;;;;;;;29.60;5.57;;;8.00;99.90;;;;;;5010256;28;20579;-81
2024/02/01 02:16:44;;;;;;;22.38;6.03;;;8.00;99.90;;;;;;5013087;28;20049;-81
2024/02/01 02:19:09;;;;;;;28.38;5.90;;;8.00;99.90;;;;;;5002927;28;20121;-81
2024/02/01 02:21:47;;;;;;;26.38;6.32;;;7.90;99.90;;;;;;5010909;28;20120;-82
2024/02/01 02:24:17;;;;;;;22.15;5.13;;;7.90;99.90;;;;;;5012048;28;20046;-80
2024/02/01 02:26:43;;;;;;;22.08;4.75;;;8.00;99.90;;;;;;5013874;28;20033;-81
2024/02/01 02:29:10;;;;;;;27.05;5.60;;;7.90;99.90;;;;;;5006501;28;20042;-80
2024/02/01 02:31:35;;;;;;;26.10;5.40;;;7.80;99.90;;;;;;5005402;28;20045;-80
2024/02/01 02:34:02;;;;;;;29.77;5.43;;;7.80;99.90;;;;;;5009784;28;20045;-81
2024/02/01 02:36:27;;;;;;;22.75;4.10;;;7.80;99.90;;;;;;5012257;28;20124;-80
2024/02/01 02:38:53;;;;;;;24.98;4.25;;;7.70;99.90;;;;;;5012388;28;20468;-80
2024/02/01 02:41:19;;;;;;;26.30;4.82;;;7.70;99.90;;;;;;5003330;28;20046;-80
2024/02/01 02:43:46;;;;;;;21.58;4.20;;;7.60;99.90;;;;;;5006276;28;20041;-80
2024/02/01 02:46:11;;;;;;;24.40;3.97;;;7.60;99.90;;;;;;5007316;28;20042;-80
2024/02/01 02:48:40;;;;;;;22.48;4.38;;;7.50;99.90;;;;;;5005767;28;20057;-81
2024/02/01 02:51:05;;;;;;;29.15;4.75;;;7.50;99.90;;;;;;5005067;28;20145;-81
2024/02/01 02:53:31;;;;;;;25.77;4.82;;;7.50;99.90;;;;;;4990038;28;20120;-81
2024/02/01 02:55:58;;;;;;;25.45;4.32;;;7.50;99.90;;;;;;5012518;28;20074;-80
2024/02/01 02:58:24;;;;;;;23.17;5.20;;;7.40;99.90;;;;;;5012322;28;20041;-81
2024/02/01 03:00:50;;;;;;;17.70;4.35;;;7.40;99.90;;;;;;4997179;28;20038;-80
2024/02/01 03:03:16;;;;;;;20.48;3.75;;;7.40;99.90;;;;;;5008048;28;20052;-80
2024/02/01 03:05:45;;;;;;;26.42;4.18;;;7.30;99.90;;;;;;5012684;28;20070;-80
2024/02/01 03:08:11;;;;;;;30.45;4.78;;;7.30;99.90;;;;;;5011846;28;20423;-80
2024/02/01 03:10:37;;;;;;;19.10;3.85;;;7.30;99.90;;;;;;5005491;28;20114;-80
2024/02/01 03:13:05;;;;;;;25.85;4.18;;;7.20;99.90;;;;;;5010024;28;20554;-79
2024/02/01 03:15:32;;;;;;;21.83;4.15;;;7.20;99.90;;;;;;5012073;28;20113;-80
2024/02/01 03:17:57;;;;;;;23.60;3.75;;;7.10;99.90;;;;;;5011111;28;20084;-80
2024/02/01 03:20:23;;;;;;;27.42;3.83;;;7.10;99.90;;;;;;5010735;28;20069;-80
2024/02/01 03:22:54;;;;;;;20.05;4.60;;;7.00;99.90;;;;;;5004309;28;20038;-80
2024/02/01 03:25:31;;;;;;;22.00;4.53;;;7.00;99.90;;;;;;5010262;28;20044;-80
2024/02/01 03:28:04;;;;;;;27.25;4.43;;;6.90;99.90;;;;;;5003178;28;20080;-80
2024/02/01 03:30:38;;;;;;;23.75;3.83;;;6.90;99.90;;;;;;5004507;28;20085;-81
2024/02/01 03:33:04;;;;;;;30.55;4.07;;;6.90;99.90;;;;;;5007729;28;20503;-80
2024/02/01 03:35:33;;;;;;;26.17;4.43;;;6.80;99.90;;;;;;5012458;28;20045;-80
2024/02/01 03:38:00;;;;;;;26.38;4.18;;;6.80;99.90;;;;;;5000641;28;20091;-81
2024/02/01 03:40:25;;;;;;;27.30;3.85;;;6.70;99.90;;;;;;5006311;28;20093;-80
2024/02/01 03:42:51;;;;;;;21.73;3.53;;;6.60;99.90;;;;;;5007525;28;20073;-81
2024/02/01 03:45:16;;;;;;;24.23;3.95;;;6.60;99.90;;;;;;5007398;28;20037;-81
2024/02/01 03:47:45;;;;;;;26.65;4.05;;;6.60;99.90;;;;;;5009403;28;20165;-80
2024/02/01 03:50:12;;;;;;;27.35;4.40;;;6.60;99.90;;;;;;5012369;28;20053;-80
2024/02/01 03:52:39;;;;;;;29.50;4.00;;;6.50;99.90;;;;;;5002129;28;20052;-81
2024/02/01 03:55:16;;;;;;;19.63;3.70;;;6.40;99.90;;;;;;5010400;28;20120;-81
2024/02/01 03:57:42;;;;;;;28.20;4.50;;;6.40;99.90;;;;;;5007842;28;20046;-81
2024/02/01 04:00:24;;;;;;;23.10;4.13;;;6.40;99.90;;;;;;5012704;28;20049;-80
2024/02/01 04:02:56;;;;;;;20.17;3.58;;;6.30;99.90;;;;;;5010421;28;20443;-81
2024/02/01 04:05:26;;;;;;;24.27;4.15;;;6.30;99.90;;;;;;5011193;28;20045;-81
2024/02/01 04:07:53;;;;;;;26.08;3.97;;;6.30;99.90;;;;;;5009457;28;20050;-80
2024/02/01 04:10:19;;;;;;;33.60;4.10;;;6.20;99.90;;;;;;5011854;28;20038;-81
2024/02/01 04:12:44;;;;;;;26.65;3.92;;;6.10;99.90;;;;;;5011238;28;20041;-80
2024/02/01 04:15:10;;;;;;;29.23;4.65;;;6.10;99.90;;;;;;5010969;28;20038;-80
2024/02/01 04:17:36;;;;;;;23.92;4.05;;;6.10;99.90;;;;;;5010641;28;20513;-81
2024/02/01 04:20:01;;;;;;;26.23;5.22;;;6.00;99.90;;;;;;5008344;28;20049;-81
2024/02/01 04:22:27;;;;;;;26.45;4.55;;;6.00;99.90;;;;;;5001074;28;20027;-80
2024/02/01 04:24:52;;;;;;;24.67;4.00;;;6.00;99.90;;;;;;5006705;28;20056;-81
2024/02/01 04:27:18;;;;;;;27.98;5.00;;;5.90;99.90;;;;;;5005100;28;20407;-81
2024/02/01 04:29:44;;;;;;;29.20;4.05;;;5.90;99.90;;;;;;5010230;28;20107;-81
2024/02/01 04:32:10;;;;;;;26.52;3.97;;;5.90;99.90;;;;;;5005484;28;20069;-82
2024/02/01 04:34:38;;;;;;;24.67;4.10;;;5.80;99.90;;;;;;5009988;28;20530;-81
2024/02/01 04:37:05;;;;;;;17.98;3.00;;;5.80;99.90;;;;;;5011520;28;20045;-81
2024/02/01 04:39:31;;;;;;;23.35;3.45;;;5.70;99.90;;;;;;5011586;28;20408;-81
2024/02/01 04:42:14;;;;;;;24.42;3.50;;;5.70;99.90;;;;;;5011012;28;20111;-81
2024/02/01 04:44:40;;;;;;;32.15;3.95;;;5.70;99.90;;;;;;5008748;28;20113;-81
2024/02/01 04:47:06;;;;;;;27.25;4.18;;;5.60;99.90;;;;;;5005842;28;20615;-81
2024/02/01 04:49:31;;;;;;;29.02;3.55;;;5.60;99.90;;;;;;5009169;28;20033;-81
2024/02/01 04:51:57;;;;;;;26.35;4.47;;;5.60;99.90;;;;;;5006547;28;20044;-81
2024/02/01 04:54:23;;;;;;;27.77;4.22;;;5.50;99.90;;;;;;5009598;28;20042;-81
2024/02/01 04:56:49;;;;;;;29.67;4.38;;;5.50;99.90;;;;;;5005657;28;20399;-81
2024/02/01 04:59:14;;;;;;;29.13;4.20;;;5.50;99.90;;;;;;4995869;28;20042;-80
2024/02/01 05:01:40;;;;;;;32.03;3.88;;;5.40;99.90;;;;;;5008987;28;20107;-80
2024/02/01 05:04:13;;;;;;;26.27;4.00;;;5.40;99.90;;;;;;4993234;28;20484;-80
2024/02/01 05:06:39;;;;;;;24.67;3.85;;;5.40;99.90;;;;;;5008659;28;20052;-80
2024/02/01 05:09:23;;;;;;;22.70;3.65;;;5.40;99.90;;;;;;5011338;28;20084;-81
2024/02/01 05:11:52;;;;;;;26.48;3.55;;;5.30;99.90;;;;;;5008150;28;20117;-80
2024/02/01 05:14:19;;;;;;;21.30;4.00;;;5.30;99.90;;;;;;5011101;28;20049;-81
2024/02/01 05:16:45;;;;;;;31.08;4.32;;;5.30;99.90;;;;;;5010554;28;20037;-80
2024/02/01 05:19:10;;;;;;;29.58;3.90;;;5.30;99.90;;;;;;5010857;28;20518;-81
2024/02/01 05:21:36;;;;;;;23.50;3.75;;;5.30;99.90;;;;;;5003814;28;20041;-81
2024/02/01 05:24:02;;;;;;;22.42;3.65;;;5.20;99.90;;;;;;5010203;28;20533;-81
2024/02/01 05:26:27;;;;;;;32.95;5.15;;;5.20;99.90;;;;;;5010847;28;20046;-81
2024/02/01 05:28:53;;;;;;;30.80;4.38;;;5.20;99.90;;;;;;5003423;28;20033;-80
2024/02/01 05:31:21;;;;;;;29.52;3.88;;;5.10;99.90;;;;;;5003368;28;20121;-83
2024/02/01 05:33:47;;;;;;;28.30;3.42;;;5.10;99.90;;;;;;5009267;28;20054;-80
2024/02/01 05:36:13;;;;;;;32.53;5.13;;;5.10;99.90;;;;;;5011054;28;20496;-80
2024/02/01 05:38:39;;;;;;;25.67;4.10;;;5.00;99.90;;;;;;5008248;28;20045;-80
2024/02/01 05:41:11;;;;;;;24.98;3.92;;;5.00;99.90;;;;;;5011027;28;20057;-80
2024/02/01 05:43:38;;;;;;;35.28;4.53;;;5.00;99.90;;;;;;5010702;28;20049;-80
2024/02/01 05:46:08;;;;;;;24.40;3.53;;;5.00;99.90;;;;;;5004271;28;20141;-80
2024/02/01 05:48:33;;;;;;;31.63;3.90;;;4.90;99.90;;;;;;5010754;28;20055;-80
2024/02/01 05:50:59;;;;;;;24.63;3.78;;;5.00;99.90;;;;;;5008719;28;20404;-80
2024/02/01 05:53:25;;;;;;;22.30;3.22;;;4.90;99.90;;;;;;5008525;28;20046;-80
2024/02/01 05:55:51;;;;;;;23.13;4.15;;;4.80;99.90;;;;;;5013334;28;20052;-80
2024/02/01 05:58:17;;;;;;;21.45;4.25;;;4.80;99.90;;;;;;5013770;28;20049;-82
2024/02/01 06:00:42;;;;;;;29.23;3.67;;;4.90;99.90;;;;;;5011395;28;20053;-80
2024/02/01 06:03:08;;;;;;;21.85;3.90;;;4.90;99.90;;;;;;5008984;28;20034;-80
2024/02/01 06:05:34;;;;;;;29.40;4.00;;;4.80;99.90;;;;;;5015121;28;20040;-81
2024/02/01 06:08:00;;;;;;;27.38;4.00;;;4.80;99.90;;;;;;5012311;28;20116;-80
2024/02/01 06:10:25;;;;;;;27.52;3.92;;;4.70;99.90;;;;;;5009964;28;20125;-80
2024/02/01 06:12:52;;;;;;;18.67;3.42;;;4.70;99.90;;;;;;5014567;28;20050;-81
2024/02/01 06:15:18;;;;;;;21.35;3.92;;;4.70;99.90;;;;;;5011502;28;20439;-80
2024/02/01 06:17:43;;;;;;;28.67;3.35;;;4.70;99.90;;;;;;5014346;28;20045;-81
2024/02/01 06:20:10;;;;;;;32.88;3.75;;;4.70;99.90;;;;;;5007232;28;20068;-83
2024/02/01 06:22:36;;;;;;;21.30;3.55;;;4.60;99.90;;;;;;5014578;28;20054;-80
2024/02/01 06:25:03;;;;;;;24.52;4.25;;;4.70;99.90;;;;;;5006977;28;20042;-81
2024/02/01 06:27:28;;;;;;;18.10;3.78;;;4.60;99.90;;;;;;5005398;28;20088;-80
2024/02/01 06:29:54;;;;;;;27.52;3.80;;;4.60;99.90;;;;;;5013989;28;20093;-81
2024/02/01 06:32:20;;;;;;;23.98;3.40;;;4.60;99.90;;;;;;5015427;28;20438;-81
2024/02/01 06:34:59;;;;;;;26.08;3.90;;;4.50;99.90;;;;;;5007959;28;20041;-81
2024/02/01 06:37:28;;;;;;;21.20;3.20;;;4.50;99.90;;;;;;5011832;28;20045;-80
2024/02/01 06:42:54;;;;;;;31.50;3.83;;;4.50;99.90;;;;;;5007147;28;20046;-82
2024/02/01 06:45:32;;;;;;;19.97;3.70;;;4.40;99.90;;;;;;5012036;28;20034;-81
2024/02/01 06:48:04;;;;;;;23.48;3.58;;;4.50;99.90;;;;;;5002833;28;20288;-81
2024/02/01 06:53:37;;;;;;;28.70;3.63;;;4.50;99.90;;;;;;4980722;28;20057;-81
2024/02/01 06:56:18;;;;;;;30.08;4.22;;;4.40;99.90;;;;;;5011149;28;20472;-81
2024/02/01 06:58:47;;;;;;;25.20;3.40;;;4.40;99.90;;;;;;5011023;28;20033;-80
2024/02/01 07:01:24;;;;;;;31.50;3.30;;;4.40;99.90;;;;;;5009013;28;20442;-80
2024/02/01 07:03:56;;;;;;;23.70;3.55;;;4.40;99.90;;;;;;4997718;28;20086;-79
2024/02/01 07:06:33;;;;;;;28.23;4.13;;;4.40;99.90;;;;;;5008612;28;20106;-79
2024/02/01 07:09:17;;;;;;;20.75;3.78;;;4.40;99.90;;;;;;5000823;28;20130;-80
2024/02/01 07:11:59;;;;;;;23.10;4.05;;;4.40;99.90;;;;;;5007349;28;20061;-81
2024/02/01 07:14:35;;;;;;;30.00;4.75;;;4.30;99.90;;;;;;5005500;28;20050;-81
2024/02/01 07:17:26;;;;;;;19.50;3.38;;;4.30;99.90;;;;;;5008758;28;20045;-81
2024/02/01 07:20:14;;;;;;;24.33;4.10;;;4.30;99.90;;;;;;5003005;28;20688;-81
2024/02/01 07:22:50;;;;;;;;;;;4.30;99.90;;;;;;5009281;28;20043;-82
2024/02/01 07:25:36;;;;;;;18.42;3.25;;;4.30;99.90;;;;;;5010692;28;19921;-81
2024/02/01 07:58:10;;;;;;;29.60;3.75;;;4.20;99.90;;;;;;4998929;28;20116;-81
2024/02/01 08:00:45;;;;;;;28.25;3.85;;;4.10;99.90;;;;;;5006680;28;20483;-81
2024/02/01 08:03:32;;;;;;;34.97;4.85;;;4.20;99.90;;;;;;5010468;28;20045;-82
2024/02/01 08:08:43;;;;;;;28.13;5.40;;;4.20;99.90;;;;;;5003902;28;20046;-82
2024/02/01 08:11:09;;;;;;;29.80;4.50;;;4.20;99.90;;;;;;5009602;28;20038;-79
2024/02/01 08:13:35;;;;;;;28.85;4.10;;;4.20;99.90;;;;;;5007479;28;20115;-80
2024/02/01 08:16:02;;;;;;;26.60;3.78;;;4.30;99.90;;;;;;5003469;28;20052;-81
2024/02/01 08:18:34;;;;;;;28.85;4.60;;;4.30;99.90;;;;;;5001959;28;20042;-80
2024/02/01 08:21:03;;;;;;;34.38;4.50;;;4.90;99.90;;;;;;5002671;28;20045;-79
2024/02/01 08:23:29;;;;;;;25.75;4.38;;;4.30;99.90;;;;;;4999443;28;20056;-81
2024/02/01 08:26:02;;;;;;;34.20;4.32;;;4.30;99.90;;;;;;5004783;28;20045;-82
2024/02/01 08:28:35;;;;;;;24.08;3.85;;;4.30;99.90;;;;;;5004630;28;20046;-80
2024/02/01 08:31:02;;;;;;;29.67;4.13;;;4.30;99.90;;;;;;5002151;28;20129;-81
2024/02/01 08:33:28;;;;;;;28.92;4.40;;;4.40;99.90;;;;;;5010462;28;20551;-81
2024/02/01 08:35:54;;;;;;;30.83;4.72;;;4.40;99.90;;;;;;5004789;28;20050;-81
2024/02/01 08:38:20;;;;;;;25.33;3.95;;;4.40;99.90;;;;;;5008665;28;20041;-81
2024/02/01 08:40:46;;;;;;;30.73;4.53;;;4.40;99.90;;;;;;5004832;28;20038;-81
2024/02/01 08:43:13;;;;;;;35.97;4.63;;;4.50;99.90;;;;;;5007815;28;20443;-81
2024/02/01 08:45:40;;;;;;;27.95;4.25;;;5.70;99.90;;;;;;5006941;28;20042;-81
2024/02/01 08:48:08;;;;;;;30.85;3.65;;;4.60;99.90;;;;;;4997240;28;20647;-82
2024/02/01 08:50:46;;;;;;;27.02;4.18;;;4.60;99.90;;;;;;5007557;28;20070;-81
2024/02/01 08:53:13;;;;;;;31.17;4.43;;;4.70;99.90;;;;;;4998741;28;20045;-81
2024/02/01 08:55:39;;;;;;;31.38;4.35;;;4.80;99.90;;;;;;5003207;28;20053;-81
2024/02/01 08:58:08;;;;;;;32.78;4.60;;;4.80;99.90;;;;;;5002424;28;20074;-82
2024/02/01 09:00:42;;;;;;;28.48;4.57;;;4.90;99.90;;;;;;5009089;28;20042;-82
2024/02/01 09:03:11;;;;;;;22.88;4.18;;;4.90;99.90;;;;;;4998786;28;20042;-82
2024/02/01 09:05:41;;;;;;;30.08;5.15;;;4.90;99.90;;;;;;5006069;28;20073;-82
2024/02/01 09:08:12;;;;;;;31.25;4.47;;;5.00;99.90;;;;;;5004964;28;20107;-81
2024/02/01 09:10:38;;;;;;;43.60;4.63;;;5.00;99.90;;;;;;5004808;28;20049;-81
2024/02/01 09:13:04;;;;;;;30.15;5.07;;;5.10;99.90;;;;;;5002653;28;20082;-81
2024/02/01 09:15:35;;;;;;;35.95;5.60;;;5.10;99.90;;;;;;5003335;28;20043;-82
2024/02/01 09:18:01;;;;;;;33.78;4.70;;;5.20;99.90;;;;;;5005848;28;20045;-82
2024/02/01 09:20:27;;;;;;;35.13;4.60;;;5.20;99.90;;;;;;5006761;28;20034;-81
2024/02/01 09:22:54;;;;;;;27.25;4.57;;;5.30;99.90;;;;;;5009595;28;20101;-81
2024/02/01 09:25:21;;;;;;;33.25;5.40;;;5.70;99.90;;;;;;5003100;28;20467;-81
2024/02/01 09:27:48;;;;;;;37.88;6.07;;;5.40;99.90;;;;;;4992564;28;20044;-81
2024/02/01 09:30:17;;;;;;;34.30;4.53;;;5.40;99.90;;;;;;5005439;28;20050;-81
2024/02/01 09:32:49;;;;;;;35.85;5.88;;;5.50;99.90;;;;;;5006077;28;20115;-83
2024/02/01 09:35:16;;;;;;;;;;;5.50;99.90;;;;;;5012107;28;20492;-82
2024/02/01 09:37:42;;;;;;;38.08;5.00;;;5.60;99.90;;;;;;5006463;28;20312;-81
2024/02/01 09:40:13;;;;;;;27.50;4.97;;;5.70;99.90;;;;;;5004201;28;20033;-81
2024/02/01 09:42:41;;;;;;;32.95;5.40;;;5.70;99.90;;;;;;4996035;28;20066;-81
2024/02/01 09:45:07;;;;;;;37.17;5.13;;;5.70;99.90;;;;;;5009127;28;20121;-81
2024/02/01 09:47:43;;;;;;;38.85;4.75;;;5.70;99.90;;;;;;5003624;28;20041;-82
2024/02/01 09:50:12;;;;;;;36.17;5.38;;;5.80;99.90;;;;;;5011261;28;20057;-81
2024/02/01 09:52:40;;;;;;;34.00;4.80;;;5.80;99.90;;;;;;5001714;28;20531;-81
2024/02/01 09:55:16;;;;;;;31.65;4.18;;;5.80;99.90;;;;;;5008974;28;20054;-81
2024/02/01 09:57:46;;;;;;;34.58;5.07;;;5.90;99.90;;;;;;5007563;28;20053;-81
2024/02/01 10:00:18;;;;;;;26.75;5.43;;;5.90;99.90;;;;;;5005281;28;20053;-81
2024/02/01 10:02:51;;;;;;;37.27;4.63;;;5.90;99.90;;;;;;5007049;28;20442;-82
2024/02/01 10:05:19;;;;;;;40.92;4.60;;;6.00;99.90;;;;;;5005057;28;20042;-81
2024/02/01 10:07:44;;;;;;;33.58;4.82;;;6.00;99.90;;;;;;5008021;28;20562;-82
2024/02/01 10:10:13;;;;;;;38.28;5.38;;;6.10;99.90;;;;;;5012034;28;20042;-82
2024/02/01 10:12:42;;;;;;;36.90;5.47;;;6.10;99.90;;;;;;5012950;28;20046;-81
2024/02/01 10:15:10;;;;;;;38.97;4.75;;;6.10;99.90;;;;;;5001682;28;20039;-82
2024/02/01 10:17:46;;;;;;;34.97;5.32;;;6.20;99.90;;;;;;5007240;28;20041;-82
2024/02/01 10:20:39;;;;;;;39.60;5.55;;;6.20;99.90;;;;;;5006765;28;20042;-82
2024/02/01 10:23:07;;;;;;;31.67;5.18;;;6.20;99.90;;;;;;5005084;28;20076;-81
2024/02/01 10:25:34;;;;;;;40.53;5.15;;;6.30;99.90;;;;;;5002877;28;20038;-82
2024/02/01 10:28:04;;;;;;;29.92;5.10;;;6.30;99.90;;;;;;5006429;28;20456;-82
2024/02/01 10:30:31;;;;;;;31.60;5.47;;;6.30;99.90;;;;;;5006077;28;20499;-81
2024/02/01 10:33:03;;;;;;;36.55;5.07;;;6.40;99.90;;;;;;5010607;28;20049;-82
2024/02/01 10:35:31;;;;;;;32.97;5.22;;;6.40;99.90;;;;;;5008758;28;20495;-82
2024/02/01 10:38:13;;;;;;;41.35;6.28;;;6.50;99.90;;;;;;5003316;28;20542;-82
2024/02/01 10:40:52;;;;;;;42.73;5.57;;;6.60;99.90;;;;;;5006875;28;20069;-81
2024/02/01 10:43:31;;;;;;;37.35;5.65;;;7.30;99.90;;;;;;5003859;28;20100;-81
2024/02/01 10:46:05;;;;;;;37.97;5.43;;;6.70;99.90;;;;;;5007545;28;20038;-83
2024/02/01 10:48:46;;;;;;;28.52;5.32;;;6.80;99.90;;;;;;5001223;28;20419;-82
2024/02/01 10:51:13;;;;;;;41.67;6.50;;;6.80;99.90;;;;;;5007270;28;20450;-81
2024/02/01 10:53:46;;;;;;;38.95;6.03;;;6.80;99.90;;;;;;5004931;28;20058;-81
2024/02/01 10:56:17;;;;;;;31.42;6.93;;;6.90;99.90;;;;;;5006575;28;20088;-81
2024/02/01 10:58:47;;;;;;;38.53;6.20;;;6.90;99.90;;;;;;5009484;28;20046;-80
2024/02/01 11:01:18;;;;;;;41.83;6.00;;;7.00;99.90;;;;;;5007879;28;20053;-82
2024/02/01 11:03:48;;;;;;;48.00;5.85;;;7.00;99.90;;;;;;5004720;28;20057;-80
2024/02/01 11:06:15;;;;;;;35.15;6.07;;;7.00;99.90;;;;;;4999767;28;20152;-84
2024/02/01 11:08:41;;;;;;;41.25;7.13;;;7.10;99.90;;;;;;5012232;28;20038;-80
2024/02/01 11:11:16;;;;;;;38.63;6.85;;;7.20;99.90;;;;;;5003199;28;20045;-80
2024/02/01 11:13:46;;;;;;;33.28;5.43;;;7.20;99.90;;;;;;5007178;28;20720;-80
2024/02/01 11:16:11;;;;;;;31.45;5.15;;;7.30;99.90;;;;;;5003886;28;20085;-81
2024/02/01 11:18:47;;;;;;;36.60;6.25;;;7.30;99.90;;;;;;5008260;28;20046;-80
2024/02/01 11:21:12;;;;;;;37.20;5.32;;;7.30;99.90;;;;;;5007904;28;20643;-80
2024/02/01 11:23:39;;;;;;;34.40;5.68;;;7.40;99.90;;;;;;5009753;28;20042;-80
2024/02/01 11:26:15;;;;;;;32.40;5.40;;;7.40;99.90;;;;;;5008577;28;20045;-80
2024/02/01 11:28:41;;;;;;;34.08;5.32;;;7.40;99.90;;;;;;5011182;28;20104;-80
2024/02/01 11:31:15;;;;;;;27.40;5.00;;;7.40;99.90;;;;;;5012597;28;20041;-80
2024/02/01 11:33:43;;;;;;;33.20;5.00;;;7.50;99.90;;;;;;5005457;28;20503;-79
2024/02/01 11:36:08;;;;;;;28.33;4.85;;;7.50;99.90;;;;;;5007636;28;20049;-80
2024/02/01 11:38:34;;;;;;;31.40;5.05;;;7.50;99.90;;;;;;5008229;28;20054;-80
2024/02/01 11:41:00;;;;;;;24.92;4.75;;;7.50;99.90;;;;;;5011108;28;20125;-79
2024/02/01 11:43:25;;;;;;;34.20;4.90;;;7.60;99.90;;;;;;5012693;28;20050;-79
2024/02/01 11:45:55;;;;;;;30.63;5.93;;;7.60;99.90;;;;;;5005485;28;20154;-79
2024/02/01 11:48:22;;;;;;;34.92;5.82;;;7.60;99.90;;;;;;5000326;28;20034;-79
2024/02/01 11:50:59;;;;;;;36.30;5.40;;;7.60;99.90;;;;;;5006524;28;20050;-79
2024/02/01 11:53:27;;;;;;;36.72;4.68;;;7.70;99.90;;;;;;5009696;28;20140;-79
2024/02/01 11:55:54;;;;;;;30.83;5.72;;;7.80;99.90;;;;;;5007363;28;20045;-80
2024/02/01 11:58:22;;;;;;;36.05;5.75;;;7.80;99.90;;;;;;5005834;28;20050;-79
2024/02/01 12:00:55;;;;;;;40.58;5.78;;;7.80;99.90;;;;;;5005283;28;20044;-79
2024/02/01 12:03:21;;;;;;;35.35;5.13;;;7.80;99.90;;;;;;5010679;28;20041;-79
2024/02/01 12:05:47;;;;;;;31.10;4.82;;;7.80;99.90;;;;;;5008732;28;20041;-78
2024/02/01 12:08:13;;;;;;;35.40;5.40;;;7.90;99.90;;;;;;5006276;28;20078;-79
2024/02/01 12:10:39;;;;;;;29.70;5.63;;;8.00;99.90;;;;;;5010664;28;20064;-78
2024/02/01 12:13:05;;;;;;;26.48;5.15;;;8.10;99.90;;;;;;5000478;28;20046;-79
2024/02/01 12:15:36;;;;;;;30.45;5.80;;;8.20;99.90;;;;;;5008727;28;20042;-78
2024/02/01 12:18:01;;;;;;;39.83;5.65;;;8.20;99.90;;;;;;5012944;28;20050;-79
2024/02/01 12:20:29;;;;;;;33.25;5.40;;;8.20;99.90;;;;;;5002874;28;20045;-78
2024/02/01 12:22:59;;;;;;;22.88;4.72;;;8.20;99.90;;;;;;5011205;28;20045;-78
2024/02/01 12:25:24;;;;;;;35.10;5.50;;;8.20;99.90;;;;;;5011621;28;20618;-78
2024/02/01 12:27:50;;;;;;;34.53;5.65;;;8.10;99.90;;;;;;4993369;28;20148;-78
2024/02/01 12:30:21;;;;;;;29.17;4.65;;;8.10;99.90;;;;;;5002100;28;20124;-79
2024/02/01 12:32:46;;;;;;;26.23;4.25;;;8.10;99.90;;;;;;5007839;28;20069;-78
2024/02/01 12:35:17;;;;;;;44.60;7.55;;;8.10;99.90;;;;;;5002565;28;20136;-78
2024/02/01 12:37:44;;;;;;;25.70;3.85;;;8.10;99.90;;;;;;5002009;28;20546;-78
2024/02/01 12:40:14;;;;;;;32.38;4.63;;;8.00;99.90;;;;;;5001015;28;20530;-78
2024/02/01 12:42:41;;;;;;;31.23;4.78;;;8.00;99.90;;;;;;5006615;28;20033;-78
2024/02/01 12:45:17;;;;;;;34.03;5.03;;;8.00;99.90;;;;;;5008363;28;20406;-78
2024/02/01 12:47:47;;;;;;;23.25;3.85;;;8.00;99.90;;;;;;5008551;28;20460;-78
2024/02/01 12:50:15;;;;;;;31.60;5.50;;;8.10;99.90;;;;;;5010306;28;20050;-78
2024/02/01 12:52:41;;;;;;;31.80;4.70;;;8.10;99.90;;;;;;5008261;28;20557;-78
2024/02/01 12:55:07;;;;;;;33.92;5.18;;;8.10;99.90;;;;;;5009544;28;20045;-78
2024/02/01 12:57:32;;;;;;;23.75;3.65;;;8.10;99.90;;;;;;5009983;28;20054;-79
2024/02/01 12:59:58;;;;;;;23.10;3.90;;;8.10;99.90;;;;;;5010855;28;20038;-77
2024/02/01 13:02:27;;;;;;;24.98;4.78;;;8.20;99.90;;;;;;5011037;28;20046;-79
2024/02/01 13:04:53;;;;;;;21.75;4.47;;;8.20;99.90;;;;;;5011744;28;20046;-78
2024/02/01 13:07:20;;;;;;;25.50;4.88;;;8.30;99.90;;;;;;5009000;28;20034;-78
2024/02/01 13:09:45;;;;;;;29.48;4.95;;;8.30;99.90;;;;;;5013926;28;20073;-77
2024/02/01 13:12:21;;;;;;;27.38;4.88;;;8.40;99.90;;;;;;5004076;28;20077;-79
2024/02/01 13:15:00;;;;;;;33.83;4.75;;;8.40;99.90;;;;;;5013109;28;20049;-79
2024/02/01 13:17:34;;;;;;;23.23;4.03;;;8.60;99.90;;;;;;5009328;28;20046;-78
2024/02/01 13:20:00;;;;;;;30.77;5.22;;;8.70;99.90;;;;;;5011107;28;20088;-79
2024/02/01 13:22:28;;;;;;;32.22;4.97;;;8.70;99.90;;;;;;5011745;28;20045;-77
2024/02/01 13:24:55;;;;;;;27.95;4.72;;;8.70;99.90;;;;;;5005040;28;20042;-78
2024/02/01 13:27:20;;;;;;;28.85;4.32;;;8.70;99.90;;;;;;5017658;28;20116;-78
2024/02/01 13:29:46;;;;;;;26.08;4.30;;;8.70;99.90;;;;;;5005777;28;20129;-78